createdAt,value
2018-08-18T00:00:27.111Z,96.38
2018-08-18T00:01:27.586Z,96.38
2018-08-18T00:02:28.062Z,96.42
2018-08-18T00:03:28.534Z,96.46
2018-08-18T00:04:29.013Z,96.49
2018-08-18T00:05:29.485Z,96.49
2018-08-18T00:06:29.957Z,96.57
2018-08-18T00:07:30.434Z,96.61
2018-08-18T00:08:30.904Z,96.61
2018-08-18T00:09:31.381Z,96.63
2018-08-18T00:10:31.852Z,96.65
2018-08-18T00:11:32.327Z,96.65
2018-08-18T00:12:32.801Z,96.64
2018-08-18T00:13:33.275Z,96.72
2018-08-18T00:14:33.745Z,96.75
2018-08-18T00:15:34.219Z,96.76
2018-08-18T00:16:34.697Z,96.74
2018-08-18T00:17:35.166Z,96.80
2018-08-18T00:18:35.641Z,96.84
2018-08-18T00:19:36.118Z,96.88
2018-08-18T00:20:36.585Z,96.89
2018-08-18T00:21:37.059Z,96.89
2018-08-18T00:22:37.529Z,96.89
2018-08-18T00:23:38.003Z,96.93
2018-08-18T00:24:38.476Z,96.92
2018-08-18T00:25:38.952Z,96.96
2018-08-18T00:26:39.421Z,96.99
2018-08-18T00:27:39.894Z,97.00
2018-08-18T00:28:40.366Z,97.02
2018-08-18T00:29:40.839Z,97.00
2018-08-18T00:30:41.311Z,97.01
2018-08-18T00:31:41.788Z,97.02
2018-08-18T00:32:42.255Z,97.06
2018-08-18T00:33:42.727Z,97.08
2018-08-18T00:34:43.200Z,97.11
2018-08-18T00:35:43.711Z,97.12
2018-08-18T00:36:44.167Z,97.12
2018-08-18T00:37:44.688Z,97.11
2018-08-18T00:38:45.087Z,97.10
2018-08-18T00:39:45.558Z,97.11
2018-08-18T00:40:46.031Z,97.11
2018-08-18T00:41:46.546Z,97.14
2018-08-18T00:42:46.972Z,97.13
2018-08-18T00:43:47.490Z,97.16
2018-08-18T00:44:47.917Z,97.15
2018-08-18T00:45:48.389Z,97.17
2018-08-18T00:46:48.859Z,97.17
2018-08-18T00:47:49.332Z,97.20
2018-08-18T00:48:49.804Z,97.20
2018-08-18T00:49:50.274Z,97.24
2018-08-18T00:50:50.744Z,97.24
2018-08-18T00:51:51.216Z,97.25
2018-08-18T00:52:51.687Z,97.25
2018-08-18T00:53:52.160Z,97.25
2018-08-18T00:54:52.629Z,97.30
2018-08-18T00:55:53.101Z,97.30
2018-08-18T00:56:53.571Z,97.29
2018-08-18T00:57:54.044Z,97.29
2018-08-18T00:58:54.516Z,97.27
2018-08-18T00:59:54.985Z,97.31
2018-08-18T01:00:55.458Z,97.31
2018-08-18T01:01:55.930Z,97.34
2018-08-18T01:02:56.402Z,97.33
2018-08-18T01:03:56.872Z,97.33
2018-08-18T01:04:57.348Z,97.34
2018-08-18T01:05:57.819Z,97.35
2018-08-18T01:06:58.288Z,97.36
2018-08-18T01:07:58.763Z,97.37
2018-08-18T01:08:59.239Z,97.39
2018-08-18T01:09:59.709Z,97.39
2018-08-18T01:11:00.281Z,97.39
2018-08-18T01:12:00.735Z,97.40
2018-08-18T01:13:01.167Z,97.42
2018-08-18T01:14:01.738Z,97.42
2018-08-18T01:15:02.124Z,97.43
2018-08-18T01:16:02.553Z,97.42
2018-08-18T01:17:03.029Z,97.44
2018-08-18T01:18:03.505Z,97.46
2018-08-18T01:19:03.976Z,97.46
2018-08-18T01:20:04.451Z,97.46
2018-08-18T01:21:04.925Z,97.46
2018-08-18T01:22:05.401Z,97.47
2018-08-18T01:23:05.876Z,97.48
2018-08-18T01:24:06.353Z,97.48
2018-08-18T01:25:06.831Z,97.52
2018-08-18T01:26:07.306Z,97.49
2018-08-18T01:27:07.833Z,97.51
2018-08-18T01:28:08.252Z,97.51
2018-08-18T01:29:08.729Z,97.48
2018-08-18T01:30:09.204Z,97.52
2018-08-18T01:31:09.677Z,97.52
2018-08-18T01:32:10.152Z,97.53
2018-08-18T01:33:10.629Z,97.53
2018-08-18T01:34:11.103Z,97.54
2018-08-18T01:35:11.578Z,97.54
2018-08-18T01:36:12.052Z,97.56
2018-08-18T01:37:12.528Z,97.56
2018-08-18T01:38:13.002Z,97.55
2018-08-18T01:39:13.476Z,97.58
2018-08-18T01:40:13.951Z,97.58
2018-08-18T01:41:14.426Z,97.57
2018-08-18T01:42:14.900Z,97.60
2018-08-18T01:43:15.373Z,97.59
2018-08-18T01:44:15.848Z,97.58
2018-08-18T01:45:16.322Z,97.59
2018-08-18T01:46:16.798Z,97.59
2018-08-18T01:47:17.270Z,97.59
2018-08-18T01:48:17.743Z,97.63
2018-08-18T01:49:18.216Z,97.61
2018-08-18T01:50:18.688Z,97.61
2018-08-18T01:51:19.162Z,97.65
2018-08-18T01:52:19.635Z,97.61
2018-08-18T01:53:20.109Z,97.64
2018-08-18T01:54:20.583Z,97.62
2018-08-18T01:55:21.053Z,97.66
2018-08-18T01:56:21.527Z,97.62
2018-08-18T01:57:21.999Z,97.65
2018-08-18T01:58:22.471Z,97.65
2018-08-18T01:59:22.943Z,97.65
2018-08-18T02:00:23.415Z,97.67
2018-08-18T02:01:23.890Z,97.65
2018-08-18T02:02:24.362Z,97.70
2018-08-18T02:03:24.831Z,97.66
2018-08-18T02:04:25.303Z,97.68
2018-08-18T02:05:25.779Z,97.67
2018-08-18T02:06:26.249Z,97.67
2018-08-18T02:07:26.719Z,97.70
2018-08-18T02:08:27.191Z,97.70
2018-08-18T02:09:27.664Z,97.69
2018-08-18T02:10:28.133Z,97.70
2018-08-18T02:11:28.605Z,97.71
2018-08-18T02:12:29.079Z,97.72
2018-08-18T02:13:29.547Z,97.72
2018-08-18T02:14:30.022Z,97.72
2018-08-18T02:15:30.493Z,97.73
2018-08-18T02:16:30.964Z,97.72
2018-08-18T02:17:31.433Z,97.77
2018-08-18T02:18:31.906Z,97.73
2018-08-18T02:19:32.377Z,97.77
2018-08-18T02:20:32.848Z,97.73
2018-08-18T02:21:33.318Z,97.77
2018-08-18T02:22:33.790Z,97.76
2018-08-18T02:23:34.262Z,97.76
2018-08-18T02:24:34.735Z,97.74
2018-08-18T02:25:35.205Z,97.75
2018-08-18T02:26:35.678Z,97.77
2018-08-18T02:27:36.149Z,97.76
2018-08-18T02:28:36.621Z,97.75
2018-08-18T02:29:37.093Z,97.79
2018-08-18T02:30:37.565Z,97.76
2018-08-18T02:31:38.039Z,97.77
2018-08-18T02:32:38.511Z,97.78
2018-08-18T02:33:39.035Z,97.79
2018-08-18T02:34:39.457Z,97.76
2018-08-18T02:35:39.930Z,97.77
2018-08-18T02:36:40.405Z,97.81
2018-08-18T02:37:40.879Z,97.81
2018-08-18T02:38:41.356Z,97.80
2018-08-18T02:39:41.828Z,97.79
2018-08-18T02:40:42.300Z,97.79
2018-08-18T02:41:42.777Z,97.80
2018-08-18T02:42:43.251Z,97.81
2018-08-18T02:43:43.733Z,97.82
2018-08-18T02:44:44.200Z,97.81
2018-08-18T02:45:44.675Z,97.82
2018-08-18T02:46:45.150Z,97.82
2018-08-18T02:47:45.628Z,97.83
2018-08-18T02:48:46.164Z,97.82
2018-08-18T02:49:46.580Z,97.84
2018-08-18T02:50:47.051Z,97.84
2018-08-18T02:51:47.526Z,97.85
2018-08-18T02:52:48.003Z,97.85
2018-08-18T02:53:48.477Z,97.85
2018-08-18T02:54:48.951Z,97.84
2018-08-18T02:55:49.424Z,97.85
2018-08-18T02:56:49.902Z,97.86
2018-08-18T02:57:50.377Z,97.86
2018-08-18T02:58:50.850Z,97.86
2018-08-18T02:59:51.323Z,97.87
2018-08-18T03:00:51.801Z,97.85
2018-08-18T03:01:52.274Z,97.83
2018-08-18T03:02:52.747Z,97.84
2018-08-18T03:03:53.224Z,97.83
2018-08-18T03:04:53.700Z,97.86
2018-08-18T03:05:54.170Z,97.85
2018-08-18T03:06:54.644Z,97.87
2018-08-18T03:07:55.176Z,97.88
2018-08-18T03:08:55.590Z,97.88
2018-08-18T03:09:56.064Z,97.89
2018-08-18T03:10:56.539Z,97.90
2018-08-18T03:11:57.012Z,97.89
2018-08-18T03:12:57.484Z,97.89
2018-08-18T03:13:57.956Z,97.90
2018-08-18T03:14:58.429Z,97.90
2018-08-18T03:15:58.904Z,97.89
2018-08-18T03:16:59.377Z,97.88
2018-08-18T03:17:59.847Z,97.92
2018-08-18T03:19:00.321Z,97.91
2018-08-18T03:20:00.792Z,97.92
2018-08-18T03:21:01.265Z,97.92
2018-08-18T03:22:01.736Z,97.93
2018-08-18T03:23:02.211Z,97.94
2018-08-18T03:24:02.680Z,97.94
2018-08-18T03:25:03.155Z,97.91
2018-08-18T03:26:03.624Z,97.94
2018-08-18T03:27:04.096Z,97.92
2018-08-18T03:28:04.566Z,97.93
2018-08-18T03:29:05.096Z,97.93
2018-08-18T03:30:05.510Z,97.95
2018-08-18T03:31:05.987Z,97.95
2018-08-18T03:32:06.451Z,97.93
2018-08-18T03:33:06.922Z,97.93
2018-08-18T03:34:07.394Z,97.97
2018-08-18T03:35:07.866Z,97.97
2018-08-18T03:36:08.335Z,97.97
2018-08-18T03:37:08.806Z,97.97
2018-08-18T03:38:09.278Z,97.97
2018-08-18T03:39:09.748Z,97.93
2018-08-18T03:40:10.219Z,97.96
2018-08-18T03:41:10.692Z,97.96
2018-08-18T03:42:11.162Z,97.96
2018-08-18T03:43:11.635Z,97.97
2018-08-18T03:44:12.106Z,97.95
2018-08-18T03:45:12.577Z,97.98
2018-08-18T03:46:13.049Z,97.97
2018-08-18T03:47:13.525Z,97.98
2018-08-18T03:48:13.993Z,97.97
2018-08-18T03:49:14.473Z,97.98
2018-08-18T03:50:14.937Z,97.98
2018-08-18T03:51:15.412Z,97.98
2018-08-18T03:52:15.917Z,97.98
2018-08-18T03:53:16.357Z,98.01
2018-08-18T03:54:16.848Z,97.99
2018-08-18T03:55:17.308Z,97.99
2018-08-18T03:56:17.780Z,98.00
2018-08-18T03:57:18.251Z,97.99
2018-08-18T03:58:18.724Z,97.98
2018-08-18T03:59:19.202Z,98.01
2018-08-18T04:00:19.674Z,98.02
2018-08-18T04:01:20.178Z,98.01
2018-08-18T04:02:20.622Z,98.01
2018-08-18T04:03:21.097Z,98.01
2018-08-18T04:04:21.571Z,98.00
2018-08-18T04:05:22.048Z,98.02
2018-08-18T04:06:22.524Z,98.03
2018-08-18T04:07:22.997Z,98.02
2018-08-18T04:08:23.472Z,98.02
2018-08-18T04:09:24.040Z,98.02
2018-08-18T04:10:24.424Z,98.02
2018-08-18T04:11:24.899Z,98.01
2018-08-18T04:12:25.371Z,98.02
2018-08-18T04:13:25.847Z,98.02
2018-08-18T04:14:26.320Z,98.02
2018-08-18T04:15:26.794Z,98.02
2018-08-18T04:16:27.270Z,98.03
2018-08-18T04:17:27.746Z,98.02
2018-08-18T04:18:28.217Z,98.07
2018-08-18T04:19:28.693Z,98.04
2018-08-18T04:20:29.167Z,98.06
2018-08-18T04:21:29.640Z,98.06
2018-08-18T04:22:30.115Z,98.05
2018-08-18T04:23:30.588Z,98.05
2018-08-18T04:24:31.061Z,98.06
2018-08-18T04:25:31.534Z,98.06
2018-08-18T04:26:32.209Z,98.05
2018-08-18T04:27:32.483Z,98.08
2018-08-18T04:28:32.954Z,98.07
2018-08-18T04:29:33.432Z,98.06
2018-08-18T04:30:33.899Z,98.07
2018-08-18T04:31:34.372Z,98.07
2018-08-18T04:32:34.844Z,98.04
2018-08-18T04:33:35.317Z,98.06
2018-08-18T04:34:35.789Z,98.07
2018-08-18T04:35:36.265Z,98.09
2018-08-18T04:36:36.734Z,98.07
2018-08-18T04:37:37.204Z,98.07
2018-08-18T04:38:38.017Z,98.08
2018-08-18T04:39:38.148Z,98.07
2018-08-18T04:40:38.621Z,98.07
2018-08-18T04:41:39.094Z,98.07
2018-08-18T04:42:39.565Z,98.08
2018-08-18T04:43:40.071Z,98.09
2018-08-18T04:44:40.505Z,98.08
2018-08-18T04:45:40.978Z,98.11
2018-08-18T04:46:41.451Z,98.11
2018-08-18T04:47:41.920Z,98.13
2018-08-18T04:48:42.392Z,98.09
2018-08-18T04:49:42.862Z,98.10
2018-08-18T04:50:43.334Z,98.11
2018-08-18T04:51:43.804Z,98.11
2018-08-18T04:52:44.277Z,98.11
2018-08-18T04:53:44.747Z,98.10
2018-08-18T04:54:45.220Z,98.11
2018-08-18T04:55:45.690Z,98.11
2018-08-18T04:56:46.192Z,98.11
2018-08-18T04:57:46.634Z,98.12
2018-08-18T04:58:47.104Z,98.12
2018-08-18T04:59:47.582Z,98.12
2018-08-18T05:00:48.051Z,98.14
2018-08-18T05:01:48.522Z,98.13
2018-08-18T05:02:48.993Z,98.13
2018-08-18T05:03:49.465Z,98.14
2018-08-18T05:04:49.938Z,98.13
2018-08-18T05:05:50.412Z,98.12
2018-08-18T05:06:50.883Z,98.12
2018-08-18T05:07:51.358Z,98.15
2018-08-18T05:08:51.877Z,98.14
2018-08-18T05:09:52.308Z,98.16
2018-08-18T05:10:52.779Z,98.13
2018-08-18T05:11:53.253Z,98.15
2018-08-18T05:12:53.727Z,98.17
2018-08-18T05:13:54.205Z,98.15
2018-08-18T05:14:54.676Z,98.14
2018-08-18T05:15:55.151Z,98.15
2018-08-18T05:16:55.628Z,98.15
2018-08-18T05:17:56.098Z,98.17
2018-08-18T05:18:56.650Z,98.16
2018-08-18T05:19:57.050Z,98.15
2018-08-18T05:20:57.522Z,98.16
2018-08-18T05:21:57.997Z,98.16
2018-08-18T05:22:58.476Z,98.16
2018-08-18T05:23:58.951Z,98.17
2018-08-18T05:24:59.423Z,98.19
2018-08-18T05:25:59.897Z,98.16
2018-08-18T05:27:00.373Z,98.17
2018-08-18T05:28:00.848Z,98.17
2018-08-18T05:29:01.322Z,98.15
2018-08-18T05:30:01.796Z,98.16
2018-08-18T05:31:02.271Z,98.20
2018-08-18T05:32:02.745Z,98.18
2018-08-18T05:33:03.219Z,98.21
2018-08-18T05:34:03.694Z,98.19
2018-08-18T05:35:04.167Z,98.20
2018-08-18T05:36:04.641Z,98.20
2018-08-18T05:37:05.114Z,98.20
2018-08-18T05:38:05.592Z,98.20
2018-08-18T05:39:06.060Z,98.19
2018-08-18T05:40:06.534Z,98.20
2018-08-18T05:41:07.007Z,98.21
2018-08-18T05:42:07.484Z,98.18
2018-08-18T05:43:07.955Z,98.23
2018-08-18T05:44:08.425Z,98.22
2018-08-18T05:45:08.898Z,98.20
2018-08-18T05:46:09.371Z,98.21
2018-08-18T05:47:09.844Z,98.19
2018-08-18T05:48:10.319Z,98.19
2018-08-18T05:49:10.787Z,98.22
2018-08-18T05:50:11.258Z,98.25
2018-08-18T05:51:11.732Z,98.20
2018-08-18T05:52:12.203Z,98.21
2018-08-18T05:53:12.676Z,98.22
2018-08-18T05:54:13.148Z,98.22
2018-08-18T05:55:13.622Z,98.21
2018-08-18T05:56:14.090Z,98.23
2018-08-18T05:57:14.562Z,98.25
2018-08-18T05:58:15.037Z,98.23
2018-08-18T05:59:15.504Z,98.21
2018-08-18T06:00:15.977Z,98.20
2018-08-18T06:01:16.445Z,98.24
2018-08-18T06:02:16.917Z,98.23
2018-08-18T06:03:17.392Z,98.22
2018-08-18T06:04:17.861Z,98.21
2018-08-18T06:05:18.333Z,98.24
2018-08-18T06:06:18.804Z,98.24
2018-08-18T06:07:19.275Z,98.25
2018-08-18T06:08:19.748Z,98.26
2018-08-18T06:09:20.221Z,98.23
2018-08-18T06:10:20.690Z,98.25
2018-08-18T06:11:21.162Z,98.23
2018-08-18T06:12:21.633Z,98.21
2018-08-18T06:13:22.107Z,98.19
2018-08-18T06:14:22.577Z,98.20
2018-08-18T06:15:23.050Z,98.24
2018-08-18T06:16:23.523Z,98.21
2018-08-18T06:17:23.997Z,98.18
2018-08-18T06:18:24.469Z,98.14
2018-08-18T06:19:24.943Z,98.11
2018-08-18T06:20:25.418Z,98.11
2018-08-18T06:21:25.890Z,98.04
2018-08-18T06:22:26.365Z,98.01
2018-08-18T06:23:26.838Z,97.93
2018-08-18T06:24:27.314Z,97.87
2018-08-18T06:25:27.786Z,97.80
2018-08-18T06:26:28.264Z,97.61
2018-08-18T06:27:28.739Z,97.40
2018-08-18T06:28:29.212Z,97.04
2018-08-18T06:29:29.689Z,96.62
2018-08-18T06:30:30.163Z,96.53
2018-08-18T06:31:30.639Z,96.47
2018-08-18T06:32:31.115Z,96.26
2018-08-18T06:33:31.590Z,95.93
2018-08-18T06:34:32.116Z,95.68
2018-08-18T06:35:32.544Z,95.67
2018-08-18T06:36:33.018Z,95.79
2018-08-18T06:37:33.495Z,95.72
2018-08-18T06:38:33.968Z,95.28
2018-08-18T06:39:34.445Z,95.01
2018-08-18T06:40:34.919Z,94.62
2018-08-18T06:41:35.421Z,93.27
2018-08-18T06:42:35.869Z,92.98
2018-08-18T06:43:36.345Z,92.13
2018-08-18T06:44:36.822Z,91.44
2018-08-18T06:45:37.296Z,90.55
2018-08-18T06:46:37.771Z,90.58
2018-08-18T06:47:38.246Z,90.99
2018-08-18T06:48:38.721Z,90.63
2018-08-18T06:49:39.196Z,90.33
2018-08-18T06:50:39.670Z,90.79
2018-08-18T06:51:40.145Z,91.75
2018-08-18T06:52:40.621Z,92.14
2018-08-18T06:53:41.095Z,91.97
2018-08-18T06:54:41.625Z,91.83
2018-08-18T06:55:42.044Z,91.07
2018-08-18T06:56:42.519Z,91.38
2018-08-18T06:57:42.995Z,91.39
2018-08-18T06:58:43.469Z,91.29
2018-08-18T06:59:43.943Z,90.62
2018-08-18T07:00:44.417Z,90.03
2018-08-18T07:01:44.889Z,89.87
2018-08-18T07:02:45.395Z,88.25
2018-08-18T07:03:45.838Z,84.92
2018-08-18T07:04:46.312Z,84.50
2018-08-18T07:05:46.860Z,78.72
2018-08-18T07:06:47.273Z,76.27
2018-08-18T07:07:47.735Z,78.33
2018-08-18T07:08:48.411Z,76.49
2018-08-18T07:09:48.680Z,70.45
2018-08-18T07:10:49.155Z,70.08
2018-08-18T07:11:49.629Z,72.76
2018-08-18T07:12:50.103Z,78.90
2018-08-18T07:13:50.575Z,77.02
2018-08-18T07:14:51.051Z,69.95
2018-08-18T07:15:51.526Z,67.87
2018-08-18T07:16:51.997Z,67.32
2018-08-18T07:17:52.470Z,67.57
2018-08-18T07:18:52.946Z,69.16
2018-08-18T07:19:53.418Z,72.33
2018-08-18T07:20:53.895Z,79.33
2018-08-18T07:21:54.368Z,77.01
2018-08-18T07:22:54.842Z,75.06
2018-08-18T07:23:55.315Z,76.30
2018-08-18T07:24:55.788Z,79.14
2018-08-18T07:25:56.262Z,76.06
2018-08-18T07:26:56.735Z,76.67
2018-08-18T07:27:57.210Z,78.52
2018-08-18T07:28:57.795Z,80.87
2018-08-18T07:29:58.164Z,78.39
2018-08-18T07:30:58.636Z,79.69
2018-08-18T07:31:59.113Z,81.59
2018-08-18T07:32:59.589Z,80.08
2018-08-18T07:34:00.063Z,77.73
2018-08-18T07:35:00.542Z,77.27
2018-08-18T07:36:01.021Z,80.63
2018-08-18T07:37:01.511Z,82.42
2018-08-18T07:38:01.973Z,82.82
2018-08-18T07:39:02.467Z,74.76
2018-08-18T07:40:02.930Z,78.63
2018-08-18T07:41:03.407Z,77.57
2018-08-18T07:42:03.885Z,79.01
2018-08-18T07:43:04.367Z,78.49
2018-08-18T07:44:04.844Z,80.04
2018-08-18T07:45:05.327Z,75.94
2018-08-18T07:46:05.804Z,76.19
2018-08-18T07:47:06.284Z,75.26
2018-08-18T07:48:06.858Z,76.33
2018-08-18T07:49:07.245Z,80.67
2018-08-18T07:50:07.725Z,81.68
2018-08-18T07:51:08.206Z,79.59
2018-08-18T07:52:08.694Z,76.82
2018-08-18T07:53:09.238Z,72.04
2018-08-18T07:54:09.653Z,72.08
2018-08-18T07:55:10.135Z,73.71
2018-08-18T07:56:10.670Z,76.60
2018-08-18T07:57:11.101Z,77.33
2018-08-18T07:58:11.583Z,79.63
2018-08-18T07:59:12.069Z,81.17
2018-08-18T08:00:12.552Z,78.04
2018-08-18T08:01:13.036Z,77.44
2018-08-18T08:02:13.517Z,77.79
2018-08-18T08:03:14.005Z,79.05
2018-08-18T08:04:14.490Z,78.35
2018-08-18T08:05:14.975Z,77.19
2018-08-18T08:06:15.606Z,77.52
2018-08-18T08:07:15.942Z,78.80
2018-08-18T08:08:16.428Z,77.86
2018-08-18T08:09:16.913Z,77.86
2018-08-18T08:10:17.397Z,76.33
2018-08-18T08:11:17.884Z,79.12
2018-08-18T08:12:18.370Z,80.88
2018-08-18T08:13:18.856Z,81.21
2018-08-18T08:14:19.342Z,79.26
2018-08-18T08:15:19.827Z,76.27
2018-08-18T08:16:20.315Z,74.51
2018-08-18T08:17:20.800Z,76.78
2018-08-18T08:18:21.290Z,78.90
2018-08-18T08:19:21.772Z,81.82
2018-08-18T08:20:22.257Z,81.96
2018-08-18T08:21:22.745Z,75.12
2018-08-18T08:22:23.232Z,74.32
2018-08-18T08:23:23.920Z,78.67
2018-08-18T08:24:24.205Z,80.38
2018-08-18T08:25:24.692Z,79.33
2018-08-18T08:26:25.179Z,79.61
2018-08-18T08:27:25.667Z,78.10
2018-08-18T08:28:26.156Z,76.04
2018-08-18T08:29:26.646Z,79.01
2018-08-18T08:30:27.132Z,79.57
2018-08-18T08:31:27.619Z,78.41
2018-08-18T08:32:28.109Z,78.94
2018-08-18T08:33:28.598Z,77.08
2018-08-18T08:34:29.089Z,74.83
2018-08-18T08:35:29.578Z,74.38
2018-08-18T08:36:30.065Z,73.88
2018-08-18T08:37:30.554Z,77.50
2018-08-18T08:38:31.044Z,78.78
2018-08-18T08:39:31.531Z,78.74
2018-08-18T08:40:32.024Z,79.96
2018-08-18T08:41:32.513Z,80.04
2018-08-18T08:42:33.000Z,79.34
2018-08-18T08:43:33.493Z,80.20
2018-08-18T08:44:33.980Z,79.56
2018-08-18T08:45:34.469Z,79.49
2018-08-18T08:46:34.956Z,79.32
2018-08-18T08:47:35.445Z,79.62
2018-08-18T08:48:35.938Z,79.91
2018-08-18T08:49:36.425Z,77.73
2018-08-18T08:50:36.914Z,78.21
2018-08-18T08:51:37.404Z,78.39
2018-08-18T08:52:37.892Z,77.08
2018-08-18T08:53:38.380Z,75.53
2018-08-18T08:54:38.868Z,75.08
2018-08-18T08:55:39.358Z,76.49
2018-08-18T08:56:39.844Z,76.52
2018-08-18T08:57:40.339Z,75.63
2018-08-18T08:58:40.826Z,76.05
2018-08-18T08:59:41.308Z,76.32
2018-08-18T09:00:41.796Z,77.28
2018-08-18T09:01:42.281Z,77.36
2018-08-18T09:02:42.766Z,78.84
2018-08-18T09:03:43.253Z,79.57
2018-08-18T09:04:43.941Z,76.34
2018-08-18T09:05:44.225Z,78.71
2018-08-18T09:06:44.709Z,80.12
2018-08-18T09:07:45.192Z,77.91
2018-08-18T09:08:45.723Z,70.89
2018-08-18T09:09:46.161Z,72.62
2018-08-18T09:10:46.697Z,73.25
2018-08-18T09:11:47.126Z,67.87
2018-08-18T09:12:47.610Z,71.25
2018-08-18T09:13:48.093Z,74.62
2018-08-18T09:14:48.574Z,75.30
2018-08-18T09:15:49.260Z,73.90
2018-08-18T09:16:49.542Z,70.90
2018-08-18T09:17:50.022Z,72.24
2018-08-18T09:18:50.502Z,70.99
2018-08-18T09:19:50.985Z,73.19
2018-08-18T09:20:51.465Z,71.18
2018-08-18T09:21:51.947Z,72.04
2018-08-18T09:22:52.428Z,69.91
2018-08-18T09:23:52.909Z,71.80
2018-08-18T09:24:53.387Z,74.83
2018-08-18T09:25:53.919Z,73.64
2018-08-18T09:26:54.350Z,73.50
2018-08-18T09:27:54.830Z,73.40
2018-08-18T09:28:55.308Z,71.09
2018-08-18T09:29:55.790Z,74.46
2018-08-18T09:30:56.268Z,75.47
2018-08-18T09:31:56.749Z,74.54
2018-08-18T09:32:57.226Z,72.33
2018-08-18T09:33:57.707Z,71.62
2018-08-18T09:34:58.183Z,75.62
2018-08-18T09:35:58.664Z,78.32
2018-08-18T09:36:59.145Z,78.29
2018-08-18T09:37:59.621Z,78.82
2018-08-18T09:39:00.101Z,79.84
2018-08-18T09:40:00.578Z,79.89
2018-08-18T09:41:01.057Z,79.20
2018-08-18T09:42:01.535Z,80.23
2018-08-18T09:43:02.012Z,79.54
2018-08-18T09:44:02.490Z,81.18
2018-08-18T09:45:02.968Z,78.56
2018-08-18T09:46:03.447Z,77.03
2018-08-18T09:47:03.923Z,77.85
2018-08-18T09:48:04.401Z,78.55
2018-08-18T09:49:04.879Z,78.34
2018-08-18T09:50:05.356Z,76.78
2018-08-18T09:51:05.833Z,75.90
2018-08-18T09:52:06.311Z,78.38
2018-08-18T09:53:06.790Z,77.42
2018-08-18T09:54:07.271Z,76.94
2018-08-18T09:55:07.745Z,78.04
2018-08-18T09:56:08.222Z,77.96
2018-08-18T09:57:08.699Z,77.65
2018-08-18T09:58:09.176Z,78.13
2018-08-18T09:59:09.657Z,77.93
2018-08-18T10:00:10.130Z,79.08
2018-08-18T10:01:10.612Z,80.00
2018-08-18T10:02:11.086Z,79.64
2018-08-18T10:03:11.559Z,78.30
2018-08-18T10:04:12.036Z,77.35
2018-08-18T10:05:12.514Z,76.05
2018-08-18T10:06:12.995Z,76.71
2018-08-18T10:07:13.468Z,75.79
2018-08-18T10:08:13.947Z,75.47
2018-08-18T10:09:14.423Z,75.35
2018-08-18T10:10:14.898Z,74.49
2018-08-18T10:11:15.374Z,75.58
2018-08-18T10:12:15.851Z,74.44
2018-08-18T10:13:16.326Z,73.17
2018-08-18T10:14:16.802Z,73.54
2018-08-18T10:15:17.294Z,73.63
2018-08-18T10:16:17.755Z,75.37
2018-08-18T10:17:18.231Z,72.90
2018-08-18T10:18:18.710Z,72.89
2018-08-18T10:19:19.183Z,71.23
2018-08-18T10:20:19.662Z,71.54
2018-08-18T10:21:20.137Z,70.48
2018-08-18T10:22:20.612Z,70.77
2018-08-18T10:23:21.089Z,69.99
2018-08-18T10:24:21.565Z,71.99
2018-08-18T10:25:22.041Z,74.42
2018-08-18T10:26:22.516Z,75.68
2018-08-18T10:27:23.026Z,73.46
2018-08-18T10:28:23.468Z,69.74
2018-08-18T10:29:23.943Z,74.49
2018-08-18T10:30:24.421Z,72.65
2018-08-18T10:31:24.895Z,71.64
2018-08-18T10:32:25.372Z,68.85
2018-08-18T10:33:25.905Z,69.80
2018-08-18T10:34:26.324Z,70.31
2018-08-18T10:35:26.801Z,71.63
2018-08-18T10:36:27.276Z,71.83
2018-08-18T10:37:27.751Z,71.44
2018-08-18T10:38:28.228Z,72.75
2018-08-18T10:39:28.704Z,72.88
2018-08-18T10:40:29.180Z,72.71
2018-08-18T10:41:29.655Z,74.04
2018-08-18T10:42:30.132Z,73.96
2018-08-18T10:43:30.609Z,74.18
2018-08-18T10:44:31.083Z,72.97
2018-08-18T10:45:31.558Z,72.00
2018-08-18T10:46:32.037Z,71.74
2018-08-18T10:47:32.509Z,71.66
2018-08-18T10:48:32.985Z,74.14
2018-08-18T10:49:33.460Z,73.89
2018-08-18T10:50:33.937Z,74.65
2018-08-18T10:51:34.451Z,74.62
2018-08-18T10:52:34.889Z,74.18
2018-08-18T10:53:35.364Z,74.57
2018-08-18T10:54:35.839Z,73.50
2018-08-18T10:55:36.518Z,75.26
2018-08-18T10:56:36.796Z,78.26
2018-08-18T10:57:37.269Z,80.44
2018-08-18T10:58:37.846Z,80.71
2018-08-18T10:59:38.220Z,78.24
2018-08-18T11:00:38.697Z,76.34
2018-08-18T11:01:39.172Z,76.90
2018-08-18T11:02:39.646Z,78.64
2018-08-18T11:03:40.124Z,79.73
2018-08-18T11:04:40.600Z,78.77
2018-08-18T11:05:41.077Z,81.82
2018-08-18T11:06:41.555Z,80.14
2018-08-18T11:07:42.028Z,81.12
2018-08-18T11:08:42.504Z,81.49
2018-08-18T11:09:42.977Z,79.27
2018-08-18T11:10:43.455Z,77.58
2018-08-18T11:11:43.932Z,78.15
2018-08-18T11:12:44.406Z,78.82
2018-08-18T11:13:44.884Z,79.81
2018-08-18T11:14:45.359Z,79.01
2018-08-18T11:15:45.840Z,77.37
2018-08-18T11:16:46.334Z,79.28
2018-08-18T11:17:46.787Z,76.66
2018-08-18T11:18:47.261Z,77.77
2018-08-18T11:19:47.737Z,78.66
2018-08-18T11:20:48.214Z,77.62
2018-08-18T11:21:48.714Z,78.18
2018-08-18T11:22:49.166Z,78.76
2018-08-18T11:23:49.642Z,81.13
2018-08-18T11:24:50.117Z,82.39
2018-08-18T11:25:50.596Z,81.99
2018-08-18T11:26:51.070Z,80.93
2018-08-18T11:27:51.544Z,81.61
2018-08-18T11:28:52.145Z,80.49
2018-08-18T11:29:52.497Z,79.03
2018-08-18T11:30:52.974Z,79.09
2018-08-18T11:31:53.449Z,80.31
2018-08-18T11:32:53.926Z,82.14
2018-08-18T11:33:54.400Z,82.52
2018-08-18T11:34:54.877Z,83.17
2018-08-18T11:35:55.353Z,83.02
2018-08-18T11:36:56.030Z,83.45
2018-08-18T11:37:56.307Z,82.35
2018-08-18T11:38:56.781Z,82.46
2018-08-18T11:39:57.257Z,80.61
2018-08-18T11:40:57.731Z,77.32
2018-08-18T11:41:58.210Z,75.99
2018-08-18T11:42:58.685Z,77.58
2018-08-18T11:43:59.159Z,79.46
2018-08-18T11:44:59.636Z,79.97
2018-08-18T11:46:00.113Z,80.82
2018-08-18T11:47:00.590Z,81.51
2018-08-18T11:48:01.067Z,81.94
2018-08-18T11:49:01.541Z,82.51
2018-08-18T11:50:02.021Z,81.92
2018-08-18T11:51:02.493Z,82.21
2018-08-18T11:52:02.969Z,84.52
2018-08-18T11:53:03.447Z,85.21
2018-08-18T11:54:03.921Z,86.29
2018-08-18T11:55:04.397Z,86.58
2018-08-18T11:56:04.881Z,87.59
2018-08-18T11:57:05.349Z,88.31
2018-08-18T11:58:05.826Z,89.19
2018-08-18T11:59:06.305Z,89.19
2018-08-18T12:00:06.778Z,88.90
2018-08-18T12:01:07.340Z,86.81
2018-08-18T12:02:07.816Z,86.42
2018-08-18T12:03:08.206Z,87.34
2018-08-18T12:04:08.679Z,87.13
2018-08-18T12:05:09.165Z,86.76
2018-08-18T12:06:09.637Z,87.09
2018-08-18T12:07:10.108Z,87.15
2018-08-18T12:08:10.584Z,88.85
2018-08-18T12:09:11.061Z,90.18
2018-08-18T12:10:11.536Z,90.23
2018-08-18T12:11:12.014Z,90.66
2018-08-18T12:12:12.490Z,89.75
2018-08-18T12:13:12.964Z,90.01
2018-08-18T12:14:13.441Z,89.17
2018-08-18T12:15:13.917Z,90.08
2018-08-18T12:16:14.394Z,90.87
2018-08-18T12:17:14.870Z,91.00
2018-08-18T12:18:15.345Z,91.77
2018-08-18T12:19:15.820Z,91.98
2018-08-18T12:20:16.296Z,91.98
2018-08-18T12:21:16.771Z,92.08
2018-08-18T12:22:17.252Z,92.04
2018-08-18T12:23:17.725Z,91.56
2018-08-18T12:24:18.203Z,90.86
2018-08-18T12:25:18.675Z,89.90
2018-08-18T12:26:19.152Z,90.10
2018-08-18T12:27:19.627Z,89.69
2018-08-18T12:28:20.103Z,90.06
2018-08-18T12:29:20.648Z,90.84
2018-08-18T12:30:21.056Z,91.73
2018-08-18T12:31:21.532Z,91.86
2018-08-18T12:32:22.006Z,91.64
2018-08-18T12:33:22.483Z,91.64
2018-08-18T12:34:22.958Z,91.36
2018-08-18T12:35:23.436Z,91.37
2018-08-18T12:36:23.928Z,91.72
2018-08-18T12:37:24.424Z,92.59
2018-08-18T12:38:24.862Z,92.50
2018-08-18T12:39:25.338Z,92.44
2018-08-18T12:40:25.815Z,91.00
2018-08-18T12:41:26.288Z,90.15
2018-08-18T12:42:26.765Z,89.54
2018-08-18T12:43:27.291Z,89.87
2018-08-18T12:44:27.716Z,88.68
2018-08-18T12:45:28.193Z,87.88
2018-08-18T12:46:28.673Z,88.53
2018-08-18T12:47:29.146Z,90.28
2018-08-18T12:48:29.622Z,91.29
2018-08-18T12:49:30.148Z,90.58
2018-08-18T12:50:30.574Z,89.62
2018-08-18T12:51:31.049Z,88.99
2018-08-18T12:52:31.525Z,90.58
2018-08-18T12:53:32.004Z,91.46
2018-08-18T12:54:32.476Z,91.73
2018-08-18T12:55:32.953Z,91.26
2018-08-18T12:56:33.484Z,91.17
2018-08-18T12:57:33.903Z,91.73
2018-08-18T12:58:34.586Z,91.59